sensor_id;sensor_type;location;lat;lon;timestamp;pressure;altitude;pressure_sealevel;temperature;humidity
22862;BME280;11598;50.652;6.172;2023-03-23T00:04:21;95386.72;;;8.00;100.00
22862;BME280;11598;50.652;6.172;2023-03-23T00:14:21;95392.59;;;8.02;100.00
22862;BME280;11598;50.652;6.172;2023-03-23T00:24:22;95392.59;;;8.02;100.00
22862;BME280;11598;50.652;6.172;2023-03-23T00:34:23;95379.41;;;8.05;100.00
22862;BME280;11598;50.652;6.172;2023-03-23T00:44:24;95375.31;;;8.02;100.00
22862;BME280;11598;50.652;6.172;2023-03-23T00:54:25;95370.50;;;7.98;100.00
22862;BME280;11598;50.652;6.172;2023-03-23T01:04:26;95372.28;;;7.97;100.00
22862;BME280;11598;50.652;6.172;2023-03-23T01:14:28;95378.25;;;7.98;100.00
22862;BME280;11598;50.652;6.172;2023-03-23T01:24:28;95377.44;;;7.97;100.00
22862;BME280;11598;50.652;6.172;2023-03-23T01:34:29;95369.81;;;7.96;100.00
22862;BME280;11598;50.652;6.172;2023-03-23T01:54:30;95340.91;;;7.91;100.00
22862;BME280;11598;50.652;6.172;2023-03-23T02:04:33;95308.38;;;7.88;100.00
22862;BME280;11598;50.652;6.172;2023-03-23T02:14:34;95305.03;;;7.76;100.00
22862;BME280;11598;50.652;6.172;2023-03-23T02:35:35;95328.22;;;7.67;100.00
22862;BME280;11598;50.652;6.172;2023-03-23T02:45:38;95305.50;;;7.70;100.00
22862;BME280;11598;50.652;6.172;2023-03-23T02:55:42;95275.19;;;7.72;100.00
22862;BME280;11598;50.652;6.172;2023-03-23T03:05:56;95300.34;;;7.70;100.00
22862;BME280;11598;50.652;6.172;2023-03-23T03:26:13;95298.63;;;7.80;100.00
22862;BME280;11598;50.652;6.172;2023-03-23T03:36:20;95283.69;;;7.84;100.00
22862;BME280;11598;50.652;6.172;2023-03-23T03:46:21;95274.06;;;7.86;100.00
22862;BME280;11598;50.652;6.172;2023-03-23T03:56:22;95295.81;;;7.83;100.00
22862;BME280;11598;50.652;6.172;2023-03-23T04:06:23;95288.06;;;7.83;100.00
22862;BME280;11598;50.652;6.172;2023-03-23T04:16:23;95288.75;;;7.86;100.00
22862;BME280;11598;50.652;6.172;2023-03-23T04:26:27;95301.22;;;7.80;100.00
22862;BME280;11598;50.652;6.172;2023-03-23T04:36:30;95319.47;;;7.79;100.00
22862;BME280;11598;50.652;6.172;2023-03-23T04:46:33;95319.03;;;7.74;100.00
22862;BME280;11598;50.652;6.172;2023-03-23T04:56:34;95323.16;;;7.65;100.00
22862;BME280;11598;50.652;6.172;2023-03-23T05:06:36;95329.41;;;7.62;100.00
22862;BME280;11598;50.652;6.172;2023-03-23T05:16:37;95342.06;;;7.66;100.00
22862;BME280;11598;50.652;6.172;2023-03-23T05:26:37;95333.88;;;7.60;100.00
22862;BME280;11598;50.652;6.172;2023-03-23T05:36:38;95316.84;;;7.58;100.00
22862;BME280;11598;50.652;6.172;2023-03-23T05:46:39;95319.91;;;7.52;100.00
22862;BME280;11598;50.652;6.172;2023-03-23T05:56:40;95325.34;;;7.49;100.00
22862;BME280;11598;50.652;6.172;2023-03-23T06:06:40;95340.13;;;7.58;100.00
22862;BME280;11598;50.652;6.172;2023-03-23T06:16:41;95336.88;;;7.77;100.00
22862;BME280;11598;50.652;6.172;2023-03-23T06:26:42;95370.44;;;7.88;100.00
22862;BME280;11598;50.652;6.172;2023-03-23T06:36:44;95372.56;;;8.04;100.00
22862;BME280;11598;50.652;6.172;2023-03-23T06:46:44;95378.88;;;8.11;100.00
22862;BME280;11598;50.652;6.172;2023-03-23T06:56:45;95380.28;;;8.15;100.00
22862;BME280;11598;50.652;6.172;2023-03-23T07:06:46;95391.78;;;8.22;100.00
22862;BME280;11598;50.652;6.172;2023-03-23T07:16:47;95386.66;;;8.32;100.00
22862;BME280;11598;50.652;6.172;2023-03-23T07:26:47;95389.56;;;8.39;100.00
22862;BME280;11598;50.652;6.172;2023-03-23T07:36:48;95387.91;;;8.49;99.08
22862;BME280;11598;50.652;6.172;2023-03-23T07:46:48;95387.28;;;8.66;98.05
22862;BME280;11598;50.652;6.172;2023-03-23T07:56:49;95386.13;;;8.80;97.08
22862;BME280;11598;50.652;6.172;2023-03-23T08:06:49;95396.84;;;8.97;96.89
22862;BME280;11598;50.652;6.172;2023-03-23T08:16:50;95408.88;;;9.07;95.95
22862;BME280;11598;50.652;6.172;2023-03-23T08:26:51;95410.25;;;9.12;94.99
22862;BME280;11598;50.652;6.172;2023-03-23T08:36:51;95432.69;;;9.22;94.67
22862;BME280;11598;50.652;6.172;2023-03-23T08:46:51;95436.09;;;9.32;93.68
22862;BME280;11598;50.652;6.172;2023-03-23T08:57:00;95434.91;;;9.37;93.52
22862;BME280;11598;50.652;6.172;2023-03-23T09:07:01;95437.19;;;9.30;95.88
22862;BME280;11598;50.652;6.172;2023-03-23T09:17:01;95452.78;;;9.40;99.26
22862;BME280;11598;50.652;6.172;2023-03-23T09:27:03;95456.78;;;9.53;99.95
22862;BME280;11598;50.652;6.172;2023-03-23T09:37:04;95437.53;;;9.46;100.00
22862;BME280;11598;50.652;6.172;2023-03-23T09:47:11;95431.81;;;9.52;100.00
22862;BME280;11598;50.652;6.172;2023-03-23T09:57:38;95449.63;;;9.96;100.00
22862;BME280;11598;50.652;6.172;2023-03-23T10:07:41;95478.66;;;10.30;99.84
22862;BME280;11598;50.652;6.172;2023-03-23T10:17:50;95492.81;;;10.07;97.63
22862;BME280;11598;50.652;6.172;2023-03-23T10:28:09;95486.06;;;9.94;98.28
22862;BME280;11598;50.652;6.172;2023-03-23T10:38:22;95482.88;;;10.41;98.68
22862;BME280;11598;50.652;6.172;2023-03-23T10:48:30;95485.97;;;10.84;96.09
22862;BME280;11598;50.652;6.172;2023-03-23T10:58:34;95485.56;;;10.78;97.11
22862;BME280;11598;50.652;6.172;2023-03-23T11:08:46;95481.91;;;10.71;100.00
22862;BME280;11598;50.652;6.172;2023-03-23T11:18:48;95470.91;;;10.97;100.00
22862;BME280;11598;50.652;6.172;2023-03-23T11:29:12;95486.88;;;11.12;100.00
22862;BME280;11598;50.652;6.172;2023-03-23T11:39:27;95453.84;;;11.32;96.33
22862;BME280;11598;50.652;6.172;2023-03-23T11:59:47;95501.13;;;11.08;92.64
22862;BME280;11598;50.652;6.172;2023-03-23T12:20:14;95494.63;;;10.55;92.32
22862;BME280;11598;50.652;6.172;2023-03-23T12:40:48;95498.16;;;10.73;93.74
22862;BME280;11598;50.652;6.172;2023-03-23T13:01:39;95509.72;;;10.11;98.87
22862;BME280;11598;50.652;6.172;2023-03-23T13:11:42;95490.41;;;10.54;96.13
22862;BME280;11598;50.652;6.172;2023-03-23T13:32:17;95459.88;;;11.23;90.81
22862;BME280;11598;50.652;6.172;2023-03-23T13:42:24;95479.78;;;11.41;90.25
22862;BME280;11598;50.652;6.172;2023-03-23T14:02:45;95489.34;;;11.04;93.52
22862;BME280;11598;50.652;6.172;2023-03-23T14:12:46;95494.66;;;11.12;96.00
22862;BME280;11598;50.652;6.172;2023-03-23T14:22:53;95488.28;;;10.96;96.45
22862;BME280;11598;50.652;6.172;2023-03-23T14:33:03;95489.94;;;10.88;94.32
22862;BME280;11598;50.652;6.172;2023-03-23T14:43:04;95473.25;;;10.81;93.39
22862;BME280;11598;50.652;6.172;2023-03-23T15:03:25;95416.66;;;10.74;91.90
22862;BME280;11598;50.652;6.172;2023-03-23T15:13:26;95414.72;;;10.86;90.07
22862;BME280;11598;50.652;6.172;2023-03-23T15:23:28;95414.72;;;10.86;87.62
22862;BME280;11598;50.652;6.172;2023-03-23T15:33:39;95421.84;;;10.84;86.17
22862;BME280;11598;50.652;6.172;2023-03-23T15:43:51;95409.94;;;10.82;85.58
22862;BME280;11598;50.652;6.172;2023-03-23T15:53:53;95399.16;;;10.76;85.36
22862;BME280;11598;50.652;6.172;2023-03-23T16:04:07;95389.06;;;10.73;84.43
22862;BME280;11598;50.652;6.172;2023-03-23T16:14:08;95407.09;;;10.65;84.61
22862;BME280;11598;50.652;6.172;2023-03-23T16:24:09;95399.22;;;10.57;85.17
22862;BME280;11598;50.652;6.172;2023-03-23T16:34:10;95412.22;;;10.47;85.44
22862;BME280;11598;50.652;6.172;2023-03-23T16:44:10;95426.97;;;10.37;86.08
22862;BME280;11598;50.652;6.172;2023-03-23T16:54:11;95423.44;;;10.38;86.49
22862;BME280;11598;50.652;6.172;2023-03-23T17:04:11;95421.13;;;10.35;86.75
22862;BME280;11598;50.652;6.172;2023-03-23T17:14:12;95431.75;;;10.32;87.19
22862;BME280;11598;50.652;6.172;2023-03-23T17:24:12;95431.06;;;10.20;87.48
22862;BME280;11598;50.652;6.172;2023-03-23T17:34:12;95421.25;;;10.04;87.89
22862;BME280;11598;50.652;6.172;2023-03-23T17:44:13;95428.75;;;9.88;89.00
22862;BME280;11598;50.652;6.172;2023-03-23T17:54:13;95419.00;;;9.80;89.53
22862;BME280;11598;50.652;6.172;2023-03-23T18:04:14;95409.84;;;9.66;90.32
22862;BME280;11598;50.652;6.172;2023-03-23T18:14:15;95389.66;;;9.60;91.84
22862;BME280;11598;50.652;6.172;2023-03-23T18:24:15;95377.66;;;9.69;91.95
22862;BME280;11598;50.652;6.172;2023-03-23T18:34:16;95376.81;;;9.68;91.75
22862;BME280;11598;50.652;6.172;2023-03-23T18:44:16;95362.91;;;9.60;92.03
22862;BME280;11598;50.652;6.172;2023-03-23T18:54:17;95344.19;;;9.46;92.38
22862;BME280;11598;50.652;6.172;2023-03-23T19:04:17;95354.56;;;9.37;93.23
22862;BME280;11598;50.652;6.172;2023-03-23T19:14:21;95363.41;;;9.24;93.52
22862;BME280;11598;50.652;6.172;2023-03-23T19:24:21;95352.97;;;9.15;93.63
22862;BME280;11598;50.652;6.172;2023-03-23T19:34:23;95333.34;;;9.12;94.08
22862;BME280;11598;50.652;6.172;2023-03-23T19:44:24;95317.53;;;9.15;94.75
22862;BME280;11598;50.652;6.172;2023-03-23T19:54:24;95294.38;;;9.33;94.54
22862;BME280;11598;50.652;6.172;2023-03-23T20:04:25;95297.94;;;9.42;94.06
22862;BME280;11598;50.652;6.172;2023-03-23T20:14:26;95300.00;;;9.48;93.87
22862;BME280;11598;50.652;6.172;2023-03-23T20:24:26;95266.69;;;9.53;93.23
22862;BME280;11598;50.652;6.172;2023-03-23T20:34:27;95261.34;;;9.55;93.20
22862;BME280;11598;50.652;6.172;2023-03-23T20:44:33;95274.72;;;9.50;93.76
22862;BME280;11598;50.652;6.172;2023-03-23T20:54:35;95260.53;;;9.44;94.81
22862;BME280;11598;50.652;6.172;2023-03-23T21:04:36;95275.13;;;9.36;95.90
22862;BME280;11598;50.652;6.172;2023-03-23T21:14:39;95283.31;;;9.21;98.02
22862;BME280;11598;50.652;6.172;2023-03-23T21:24:40;95277.41;;;9.00;100.00
22862;BME280;11598;50.652;6.172;2023-03-23T21:34:40;95274.66;;;8.82;100.00
22862;BME280;11598;50.652;6.172;2023-03-23T21:44:42;95256.63;;;8.71;100.00
22862;BME280;11598;50.652;6.172;2023-03-23T21:54:42;95255.66;;;8.62;100.00
22862;BME280;11598;50.652;6.172;2023-03-23T22:04:43;95240.91;;;8.53;100.00
22862;BME280;11598;50.652;6.172;2023-03-23T22:14:44;95208.72;;;8.45;100.00
22862;BME280;11598;50.652;6.172;2023-03-23T22:24:47;95202.75;;;8.45;100.00
22862;BME280;11598;50.652;6.172;2023-03-23T22:34:47;95179.28;;;8.46;100.00
22862;BME280;11598;50.652;6.172;2023-03-23T22:44:48;95174.25;;;8.45;100.00
22862;BME280;11598;50.652;6.172;2023-03-23T22:54:48;95157.66;;;8.48;100.00
22862;BME280;11598;50.652;6.172;2023-03-23T23:04:49;95144.59;;;8.49;100.00
22862;BME280;11598;50.652;6.172;2023-03-23T23:14:50;95111.34;;;8.54;100.00
22862;BME280;11598;50.652;6.172;2023-03-23T23:24:51;95118.72;;;8.59;100.00
22862;BME280;11598;50.652;6.172;2023-03-23T23:34:51;95102.38;;;8.68;100.00
22862;BME280;11598;50.652;6.172;2023-03-23T23:44:51;95073.06;;;8.77;100.00
22862;BME280;11598;50.652;6.172;2023-03-23T23:54:52;95055.47;;;8.81;100.00
